createdAt,value
2018-06-30T00:01:15.440Z,17.88
2018-06-30T00:03:48.907Z,17.82
2018-06-30T00:06:17.311Z,17.78
2018-06-30T00:08:46.208Z,17.84
2018-06-30T00:11:14.611Z,17.90
2018-06-30T00:13:42.718Z,17.85
2018-06-30T00:16:10.836Z,17.92
2018-06-30T00:18:39.159Z,17.91
2018-06-30T00:21:07.808Z,17.86
2018-06-30T00:23:36.164Z,17.77
2018-06-30T00:26:04.416Z,17.69
2018-06-30T00:28:32.856Z,17.67
2018-06-30T00:31:01.585Z,17.56
2018-06-30T00:33:30.174Z,17.43
2018-06-30T00:35:58.304Z,17.42
2018-06-30T00:38:26.468Z,17.40
2018-06-30T00:40:55.081Z,17.24
2018-06-30T00:43:23.193Z,17.20
2018-06-30T00:45:51.696Z,17.13
2018-06-30T00:48:19.853Z,17.15
2018-06-30T00:50:48.096Z,17.10
2018-06-30T00:53:16.191Z,17.02
2018-06-30T00:55:44.301Z,16.98
2018-06-30T00:58:12.684Z,17.01
2018-06-30T01:00:42.356Z,17.03
2018-06-30T01:03:11.148Z,16.98
2018-06-30T01:05:39.397Z,17.01
2018-06-30T01:08:07.648Z,16.97
2018-06-30T01:10:35.803Z,16.93
2018-06-30T01:13:03.989Z,16.90
2018-06-30T01:15:32.624Z,16.87
2018-06-30T01:18:00.792Z,16.83
2018-06-30T01:20:28.932Z,16.75
2018-06-30T01:22:57.026Z,16.73
2018-06-30T01:25:25.495Z,16.67
2018-06-30T01:27:54.456Z,16.61
2018-06-30T01:30:23.032Z,16.58
2018-06-30T01:32:51.629Z,16.63
2018-06-30T01:35:19.871Z,16.76
2018-06-30T01:37:47.961Z,16.78
2018-06-30T01:40:16.163Z,16.64
2018-06-30T01:42:44.341Z,16.50
2018-06-30T01:45:12.428Z,16.50
2018-06-30T01:47:40.618Z,16.59
2018-06-30T01:50:08.807Z,16.60
2018-06-30T01:52:36.911Z,16.59
2018-06-30T01:55:05.107Z,16.50
2018-06-30T01:57:33.497Z,16.37
2018-06-30T02:00:01.871Z,16.40
2018-06-30T02:02:30.100Z,16.45
2018-06-30T02:04:58.523Z,16.48
2018-06-30T02:07:26.685Z,16.53
2018-06-30T02:09:55.168Z,16.43
2018-06-30T02:12:23.260Z,16.46
2018-06-30T02:14:52.231Z,16.40
2018-06-30T02:17:20.820Z,16.30
2018-06-30T02:19:48.987Z,16.21
2018-06-30T02:22:17.243Z,16.16
2018-06-30T02:24:45.339Z,16.14
2018-06-30T02:27:13.432Z,16.08
2018-06-30T02:29:41.487Z,16.13
2018-06-30T02:32:09.792Z,16.15
2018-06-30T02:34:37.968Z,16.10
2018-06-30T02:37:07.270Z,16.07
2018-06-30T02:39:35.624Z,16.04
2018-06-30T02:42:03.800Z,16.04
2018-06-30T02:44:32.035Z,15.90
2018-06-30T02:47:00.175Z,15.91
2018-06-30T02:49:28.264Z,15.90
2018-06-30T02:51:56.544Z,15.85
2018-06-30T02:54:24.894Z,15.89
2018-06-30T02:56:53.172Z,15.86
2018-06-30T02:59:22.015Z,15.79
2018-06-30T03:01:50.335Z,15.67
2018-06-30T03:04:18.423Z,15.61
2018-06-30T03:06:46.735Z,15.44
2018-06-30T03:09:14.852Z,15.47
2018-06-30T03:11:43.203Z,15.54
2018-06-30T03:14:11.317Z,15.72
2018-06-30T03:16:39.630Z,15.72
2018-06-30T03:19:07.720Z,15.57
2018-06-30T03:21:35.993Z,15.53
2018-06-30T03:24:04.164Z,15.55
2018-06-30T03:26:32.432Z,15.60
2018-06-30T03:29:00.547Z,15.60
2018-06-30T03:31:28.905Z,15.56
2018-06-30T03:33:57.248Z,15.56
2018-06-30T03:36:26.146Z,15.58
2018-06-30T03:38:54.303Z,15.58
2018-06-30T03:41:22.811Z,15.58
2018-06-30T03:43:51.571Z,15.58
2018-06-30T03:46:19.725Z,15.44
2018-06-30T03:48:47.987Z,15.45
2018-06-30T03:51:16.067Z,15.41
2018-06-30T03:53:44.157Z,15.44
2018-06-30T03:56:12.248Z,15.52
2018-06-30T03:58:40.368Z,15.60
2018-06-30T04:01:08.492Z,15.61
2018-06-30T04:03:36.676Z,15.60
2018-06-30T04:06:05.941Z,15.77
2018-06-30T04:08:34.245Z,15.86
2018-06-30T04:11:02.573Z,15.90
2018-06-30T04:13:31.664Z,15.93
2018-06-30T04:16:00.733Z,16.13
2018-06-30T04:18:28.906Z,16.22
2018-06-30T04:20:57.250Z,16.31
2018-06-30T04:23:25.406Z,16.59
2018-06-30T04:25:53.629Z,17.59
2018-06-30T04:28:21.969Z,19.24
2018-06-30T04:30:50.360Z,20.75
2018-06-30T04:33:18.431Z,22.20
2018-06-30T04:35:46.664Z,23.50
2018-06-30T04:38:14.811Z,24.88
2018-06-30T04:40:42.919Z,25.74
2018-06-30T04:43:11.013Z,26.04
2018-06-30T04:45:39.164Z,26.41
2018-06-30T04:48:07.925Z,26.23
2018-06-30T04:50:36.010Z,26.31
2018-06-30T04:53:04.116Z,26.63
2018-06-30T04:55:32.292Z,27.37
2018-06-30T04:58:01.088Z,27.72
2018-06-30T05:00:29.417Z,28.04
2018-06-30T05:02:57.563Z,27.78
2018-06-30T05:05:25.657Z,27.21
2018-06-30T05:07:53.762Z,27.50
2018-06-30T05:10:21.909Z,28.45
2018-06-30T05:12:50.147Z,28.83
2018-06-30T05:15:18.204Z,29.14
2018-06-30T05:17:46.277Z,29.48
2018-06-30T05:20:14.357Z,30.25
2018-06-30T05:22:42.604Z,31.18
2018-06-30T05:25:10.683Z,31.44
2018-06-30T05:27:38.772Z,31.80
2018-06-30T05:30:06.844Z,30.88
2018-06-30T05:32:34.965Z,31.08
2018-06-30T05:35:03.432Z,30.62
2018-06-30T05:37:32.015Z,30.85
2018-06-30T05:40:00.159Z,30.20
2018-06-30T05:42:28.582Z,30.21
2018-06-30T05:44:56.765Z,28.92
2018-06-30T05:47:24.871Z,28.85
2018-06-30T05:49:52.932Z,29.19
2018-06-30T05:52:21.178Z,29.27
2018-06-30T05:54:49.345Z,30.08
2018-06-30T05:57:17.448Z,29.91
2018-06-30T05:59:45.525Z,29.94
2018-06-30T06:02:13.668Z,29.70
2018-06-30T06:04:42.364Z,28.78
2018-06-30T06:07:10.464Z,27.63
2018-06-30T06:09:38.567Z,27.95
2018-06-30T06:12:06.668Z,28.23
2018-06-30T06:14:34.783Z,28.97
2018-06-30T06:17:03.149Z,28.18
2018-06-30T06:19:31.215Z,27.62
2018-06-30T06:21:59.263Z,28.35
2018-06-30T06:24:27.372Z,28.39
2018-06-30T06:26:55.457Z,27.63
2018-06-30T06:29:23.540Z,28.16
2018-06-30T06:31:51.609Z,28.11
2018-06-30T06:34:19.680Z,27.15
2018-06-30T06:36:47.904Z,27.10
2018-06-30T06:39:16.197Z,27.78
2018-06-30T06:41:44.343Z,27.86
2018-06-30T06:44:12.376Z,27.00
2018-06-30T06:46:40.460Z,25.63
2018-06-30T06:49:08.540Z,24.38
2018-06-30T06:51:36.644Z,23.23
2018-06-30T06:54:04.996Z,22.77
2018-06-30T06:56:33.071Z,22.37
2018-06-30T06:59:01.142Z,22.82
2018-06-30T07:01:29.211Z,22.58
2018-06-30T07:03:57.317Z,22.43
2018-06-30T07:06:25.425Z,22.54
2018-06-30T07:08:53.633Z,22.82
2018-06-30T07:11:21.829Z,22.84
2018-06-30T07:13:49.929Z,22.98
2018-06-30T07:16:18.152Z,23.16
2018-06-30T07:18:46.252Z,22.72
2018-06-30T07:21:14.348Z,23.03
2018-06-30T07:23:42.448Z,23.25
2018-06-30T07:26:10.570Z,23.26
2018-06-30T07:28:38.644Z,22.96
2018-06-30T07:31:06.784Z,22.92
2018-06-30T07:33:35.448Z,22.67
2018-06-30T07:36:03.798Z,22.92
2018-06-30T07:38:32.042Z,23.29
2018-06-30T07:41:00.104Z,23.21
2018-06-30T07:43:28.239Z,23.14
2018-06-30T07:45:56.337Z,23.04
2018-06-30T07:48:24.395Z,23.19
2018-06-30T07:50:53.333Z,23.30
2018-06-30T07:53:21.435Z,23.29
2018-06-30T07:55:49.519Z,23.53
2018-06-30T07:58:17.675Z,23.87
2018-06-30T08:00:45.744Z,23.56
2018-06-30T08:03:13.834Z,23.41
2018-06-30T08:05:42.077Z,23.48
2018-06-30T08:08:11.248Z,23.56
2018-06-30T08:10:39.483Z,23.58
2018-06-30T08:13:19.280Z,23.64
2018-06-30T08:15:47.777Z,23.44
2018-06-30T08:18:15.963Z,23.73
2018-06-30T08:20:44.058Z,24.10
2018-06-30T08:23:12.139Z,23.94
2018-06-30T08:25:40.234Z,24.11
2018-06-30T08:28:08.732Z,24.29
2018-06-30T08:30:37.255Z,24.50
2018-06-30T08:33:05.428Z,24.45
2018-06-30T08:35:33.528Z,24.48
2018-06-30T08:38:01.696Z,24.32
2018-06-30T08:40:29.852Z,24.63
2018-06-30T08:42:57.988Z,24.26
2018-06-30T08:45:26.081Z,24.22
2018-06-30T08:48:01.389Z,24.20
2018-06-30T08:50:29.712Z,24.47
2018-06-30T08:52:57.844Z,24.76
2018-06-30T08:55:25.963Z,25.00
2018-06-30T08:57:54.136Z,24.77
2018-06-30T09:00:22.556Z,24.83
2018-06-30T09:02:50.644Z,25.13
2018-06-30T09:05:18.993Z,24.99
2018-06-30T09:07:47.109Z,24.88
2018-06-30T10:18:26.811Z,26.94
2018-06-30T10:20:55.015Z,27.22
2018-06-30T10:23:23.289Z,27.07
2018-06-30T10:25:51.387Z,27.19
2018-06-30T10:28:19.488Z,27.04
2018-06-30T10:30:47.597Z,27.39
2018-06-30T10:33:15.687Z,27.75
2018-06-30T10:35:43.815Z,27.18
2018-06-30T10:38:12.295Z,27.63
2018-06-30T10:40:40.412Z,27.48
2018-06-30T10:43:08.508Z,27.61
2018-06-30T10:45:36.588Z,27.89
2018-06-30T10:48:05.212Z,28.01
2018-06-30T10:50:33.289Z,27.68
2018-06-30T10:53:01.437Z,27.78
2018-06-30T10:55:29.546Z,27.57
2018-06-30T10:57:58.004Z,27.49
2018-06-30T11:00:26.221Z,27.72
2018-06-30T11:02:54.185Z,28.00
2018-06-30T11:05:22.256Z,27.52
2018-06-30T11:07:50.710Z,28.02
2018-06-30T11:10:19.056Z,27.76
2018-06-30T11:12:47.209Z,28.05
2018-06-30T11:15:15.320Z,28.11
2018-06-30T11:17:43.412Z,28.27
2018-06-30T11:20:12.359Z,28.32
2018-06-30T11:22:40.721Z,28.27
2018-06-30T11:25:09.362Z,28.37
2018-06-30T11:27:37.476Z,28.57
2018-06-30T11:30:05.640Z,28.30
2018-06-30T11:32:34.051Z,28.44
2018-06-30T11:35:02.153Z,28.55
2018-06-30T11:37:30.248Z,28.39
2018-06-30T11:39:58.308Z,28.61
2018-06-30T11:42:26.396Z,28.76
2018-06-30T11:44:54.460Z,28.65
2018-06-30T11:47:22.941Z,28.70
2018-06-30T11:49:51.010Z,28.50
2018-06-30T11:52:19.114Z,28.51
2018-06-30T11:54:47.755Z,28.58
2018-06-30T11:57:15.810Z,28.73
2018-06-30T11:59:45.253Z,29.08
2018-06-30T12:02:13.472Z,28.99
2018-06-30T12:04:41.550Z,28.76
2018-06-30T12:07:10.413Z,28.42
2018-06-30T12:09:38.508Z,28.41
2018-06-30T12:12:06.618Z,28.84
2018-06-30T12:14:34.867Z,28.95
2018-06-30T12:17:02.967Z,29.00
2018-06-30T12:19:31.444Z,28.83
2018-06-30T12:21:59.626Z,28.69
2018-06-30T12:24:27.734Z,28.97
2018-06-30T12:26:56.548Z,29.02
2018-06-30T12:29:24.623Z,29.10
2018-06-30T12:31:52.702Z,28.98
2018-06-30T12:34:20.919Z,29.08
2018-06-30T12:36:49.108Z,29.11
2018-06-30T12:39:17.207Z,29.29
2018-06-30T12:41:45.272Z,29.44
2018-06-30T12:44:13.364Z,29.07
2018-06-30T12:46:41.456Z,29.27
2018-06-30T12:49:09.767Z,28.92
2018-06-30T12:51:37.840Z,29.02
2018-06-30T12:54:06.134Z,29.07
2018-06-30T12:56:34.382Z,29.17
2018-06-30T12:59:02.623Z,29.36
2018-06-30T13:01:30.712Z,28.91
2018-06-30T13:03:58.932Z,28.67
2018-06-30T13:06:27.033Z,29.01
2018-06-30T13:08:55.467Z,29.64
2018-06-30T13:11:23.599Z,29.32
2018-06-30T13:13:51.715Z,28.97
2018-06-30T13:16:19.812Z,28.90
2018-06-30T13:18:48.254Z,29.51
2018-06-30T13:21:16.475Z,29.53
2018-06-30T13:23:44.869Z,29.76
2018-06-30T13:26:12.941Z,29.61
2018-06-30T13:28:41.055Z,29.31
2018-06-30T13:31:09.283Z,29.50
2018-06-30T13:33:37.362Z,29.34
2018-06-30T13:36:05.477Z,29.48
2018-06-30T13:38:33.550Z,29.70
2018-06-30T13:41:01.639Z,28.91
2018-06-30T13:43:29.767Z,29.22
2018-06-30T13:45:57.939Z,28.71
2018-06-30T13:48:26.021Z,28.50
2018-06-30T13:50:54.116Z,28.79
2018-06-30T13:53:22.219Z,29.30
2018-06-30T13:55:50.280Z,29.49
2018-06-30T13:58:18.590Z,29.43
2018-06-30T14:00:46.715Z,29.29
2018-06-30T14:03:14.742Z,29.21
2018-06-30T14:05:43.236Z,29.47
2018-06-30T14:08:11.323Z,29.08
2018-06-30T14:10:39.411Z,29.06
2018-06-30T14:13:07.977Z,29.02
2018-06-30T14:15:36.158Z,29.05
2018-06-30T14:18:05.062Z,28.73
2018-06-30T14:20:33.156Z,28.63
2018-06-30T14:23:01.212Z,28.90
2018-06-30T14:25:29.301Z,29.35
2018-06-30T14:27:57.495Z,29.10
2018-06-30T14:30:25.736Z,29.02
2018-06-30T14:32:53.807Z,29.05
2018-06-30T14:35:21.907Z,28.84
2018-06-30T14:37:50.066Z,28.51
2018-06-30T14:40:18.080Z,28.48
2018-06-30T14:42:46.221Z,28.75
2018-06-30T14:45:14.301Z,28.64
2018-06-30T14:47:42.387Z,28.73
2018-06-30T14:50:10.488Z,28.62
2018-06-30T14:52:38.917Z,28.89
2018-06-30T14:55:07.156Z,28.75
2018-06-30T14:57:35.669Z,28.83
2018-06-30T15:00:04.523Z,28.82
2018-06-30T15:02:32.613Z,28.86
2018-06-30T15:05:01.512Z,28.92
2018-06-30T15:07:29.922Z,28.62
2018-06-30T15:09:58.168Z,28.44
2018-06-30T15:12:26.256Z,28.56
2018-06-30T15:14:54.544Z,28.58
2018-06-30T15:17:22.793Z,28.75
2018-06-30T15:19:51.274Z,28.99
2018-06-30T15:22:19.373Z,28.71
2018-06-30T15:24:47.865Z,28.50
2018-06-30T15:27:16.177Z,28.44
2018-06-30T15:29:44.488Z,28.58
2018-06-30T15:32:12.708Z,28.34
2018-06-30T15:34:40.840Z,28.41
2018-06-30T15:37:08.924Z,28.26
2018-06-30T15:39:37.002Z,28.46
2018-06-30T15:42:05.107Z,28.72
2018-06-30T15:44:33.179Z,28.38
2018-06-30T15:47:01.253Z,28.59
2018-06-30T15:49:29.338Z,28.36
2018-06-30T15:51:57.423Z,28.47
2018-06-30T15:54:25.882Z,28.46
2018-06-30T15:56:54.624Z,28.52
2018-06-30T15:59:22.704Z,28.34
2018-06-30T16:01:50.932Z,28.41
2018-06-30T16:04:19.018Z,28.57
2018-06-30T16:06:47.118Z,28.79
2018-06-30T16:09:15.188Z,28.60
2018-06-30T16:11:43.261Z,28.41
2018-06-30T16:14:11.354Z,28.41
2018-06-30T16:16:39.995Z,28.33
2018-06-30T16:19:08.084Z,28.25
2018-06-30T16:21:36.330Z,28.57
2018-06-30T16:24:04.417Z,28.26
2018-06-30T16:26:32.501Z,28.38
2018-06-30T16:29:01.145Z,28.28
2018-06-30T16:31:29.960Z,28.28
2018-06-30T16:33:58.054Z,28.34
2018-06-30T16:36:26.677Z,28.11
2018-06-30T16:38:55.120Z,28.02
2018-06-30T16:41:23.404Z,28.08
2018-06-30T16:43:52.285Z,28.31
2018-06-30T16:46:20.585Z,28.20
2018-06-30T16:48:48.767Z,28.45
2018-06-30T16:51:16.848Z,28.21
2018-06-30T16:53:44.963Z,28.24
2018-06-30T16:56:13.064Z,28.26
2018-06-30T16:58:41.241Z,28.18
2018-06-30T17:01:09.325Z,28.04
2018-06-30T17:03:37.564Z,27.78
2018-06-30T17:06:05.836Z,27.96
2018-06-30T17:08:34.004Z,28.07
2018-06-30T17:11:02.094Z,28.11
2018-06-30T17:13:30.232Z,28.02
2018-06-30T17:15:58.678Z,27.99
2018-06-30T17:18:26.756Z,27.71
2018-06-30T17:20:54.839Z,27.68
2018-06-30T17:23:22.950Z,27.68
2018-06-30T17:25:51.047Z,27.87
2018-06-30T17:28:19.334Z,27.46
2018-06-30T17:30:47.420Z,27.41
2018-06-30T17:33:15.478Z,27.42
2018-06-30T17:35:43.576Z,27.20
2018-06-30T17:38:11.639Z,27.43
2018-06-30T17:40:39.777Z,27.31
2018-06-30T17:43:07.864Z,27.20
2018-06-30T17:45:35.948Z,27.13
2018-06-30T17:48:03.978Z,27.21
2018-06-30T17:50:32.089Z,26.94
2018-06-30T17:53:00.148Z,26.83
2018-06-30T17:55:28.232Z,26.64
2018-06-30T17:57:56.387Z,26.47
2018-06-30T18:00:24.560Z,26.44
2018-06-30T18:02:52.789Z,26.32
2018-06-30T18:05:20.859Z,26.30
2018-06-30T18:07:49.232Z,26.20
2018-06-30T18:10:17.500Z,26.06
2018-06-30T18:12:45.442Z,26.06
2018-06-30T18:15:23.119Z,25.97
2018-06-30T18:17:51.192Z,25.92
2018-06-30T18:20:19.327Z,25.85
2018-06-30T18:22:47.445Z,25.77
2018-06-30T18:25:15.698Z,25.70
2018-06-30T18:27:43.790Z,25.60
2018-06-30T18:30:12.008Z,25.56
2018-06-30T18:32:40.077Z,25.46
2018-06-30T18:35:08.362Z,25.46
2018-06-30T18:37:36.727Z,25.41
2018-06-30T18:40:05.476Z,25.33
2018-06-30T18:42:33.555Z,25.18
2018-06-30T18:45:01.885Z,25.10
2018-06-30T18:47:30.996Z,25.04
2018-06-30T18:49:59.087Z,24.90
2018-06-30T18:52:27.184Z,24.84
2018-06-30T18:54:55.309Z,24.78
2018-06-30T18:57:23.388Z,24.68
2018-06-30T18:59:51.500Z,24.62
2018-06-30T19:02:19.613Z,24.53
2018-06-30T19:04:47.713Z,24.47
2018-06-30T19:07:15.792Z,24.46
2018-06-30T19:09:43.885Z,24.38
2018-06-30T19:12:11.994Z,24.24
2018-06-30T19:14:40.085Z,24.20
2018-06-30T19:17:08.256Z,24.15
2018-06-30T19:19:36.495Z,24.06
2018-06-30T19:22:04.678Z,23.98
2018-06-30T19:24:32.777Z,23.91
2018-06-30T19:27:01.042Z,23.81
2018-06-30T19:29:29.120Z,23.76
2018-06-30T19:31:57.196Z,23.71
2018-06-30T19:34:25.453Z,23.62
2018-06-30T19:36:53.821Z,23.57
2018-06-30T19:39:21.927Z,23.46
2018-06-30T19:41:50.009Z,23.33
2018-06-30T19:44:18.089Z,23.25
2018-06-30T19:46:46.186Z,23.22
2018-06-30T19:49:14.260Z,23.22
2018-06-30T19:51:42.612Z,23.14
2018-06-30T19:54:10.677Z,22.97
2018-06-30T19:56:38.781Z,22.87
2018-06-30T19:59:06.868Z,22.79
2018-06-30T20:01:35.096Z,22.63
2018-06-30T20:04:03.464Z,22.48
2018-06-30T20:06:31.655Z,22.38
2018-06-30T20:08:59.743Z,22.20
2018-06-30T20:11:27.850Z,22.08
2018-06-30T20:13:55.988Z,22.03
2018-06-30T20:16:24.083Z,21.96
2018-06-30T20:18:52.184Z,21.86
2018-06-30T20:21:20.567Z,21.73
2018-06-30T20:23:48.688Z,21.63
2018-06-30T20:26:16.764Z,21.51
2018-06-30T20:28:44.877Z,21.54
2018-06-30T20:31:12.953Z,21.44
2018-06-30T20:33:41.060Z,21.40
2018-06-30T20:36:09.594Z,21.31
2018-06-30T20:38:37.681Z,21.25
2018-06-30T20:41:05.803Z,21.22
2018-06-30T20:43:34.152Z,21.16
2018-06-30T20:46:02.222Z,21.14
2018-06-30T20:48:30.298Z,21.03
2018-06-30T20:50:58.395Z,20.93
2018-06-30T20:53:26.508Z,20.83
2018-06-30T20:55:54.583Z,20.77
2018-06-30T20:58:22.728Z,20.70
2018-06-30T21:00:50.817Z,20.60
2018-06-30T21:03:18.900Z,20.51
2018-06-30T21:05:47.112Z,20.34
2018-06-30T21:08:15.282Z,20.31
2018-06-30T21:10:43.332Z,20.25
2018-06-30T21:13:11.459Z,20.23
2018-06-30T21:15:44.243Z,20.21
2018-06-30T21:18:12.337Z,20.09
2018-06-30T21:20:40.747Z,20.03
2018-06-30T21:23:09.481Z,20.01
2018-06-30T21:25:38.024Z,19.90
2018-06-30T21:28:06.276Z,19.87
2018-06-30T21:30:34.349Z,19.74
2018-06-30T21:33:02.411Z,19.66
